createdAt,value
2022-09-18T00:05:46.061Z,12.25
2022-09-18T00:20:51.646Z,12.19
2022-09-18T00:35:57.279Z,12.00
2022-09-18T00:51:03.132Z,12.06
2022-09-18T01:06:15.974Z,12.13
2022-09-18T01:21:27.372Z,11.94
2022-09-18T01:36:37.231Z,11.75
2022-09-18T01:51:47.719Z,11.63
2022-09-18T02:06:59.118Z,11.44
2022-09-18T02:22:10.835Z,11.44
2022-09-18T02:37:29.019Z,11.25
2022-09-18T02:52:41.805Z,11.25
2022-09-18T03:07:47.432Z,11.25
2022-09-18T03:22:53.039Z,11.00
2022-09-18T03:37:58.559Z,11.00
2022-09-18T03:53:04.259Z,11.00
2022-09-18T04:08:09.997Z,10.88
2022-09-18T04:23:15.571Z,11.00
2022-09-18T04:38:27.705Z,10.94
2022-09-18T04:53:35.730Z,10.88
2022-09-18T05:08:41.294Z,10.88
2022-09-18T05:23:47.275Z,10.88
2022-09-18T05:38:52.902Z,10.75
2022-09-18T05:53:58.527Z,10.94
2022-09-18T06:09:04.198Z,11.06
2022-09-18T06:24:09.988Z,11.44
2022-09-18T06:39:15.629Z,11.63
2022-09-18T06:54:21.203Z,11.56
2022-09-18T07:09:26.759Z,11.75
2022-09-18T07:24:32.556Z,12.00
2022-09-18T07:39:38.133Z,12.31
2022-09-18T07:54:43.793Z,12.69
2022-09-18T08:09:49.524Z,12.94
2022-09-18T08:24:55.027Z,13.13
2022-09-18T08:40:00.862Z,13.44
2022-09-18T08:55:12.867Z,13.81
2022-09-18T09:10:31.253Z,14.06
2022-09-18T09:25:45.985Z,14.50
2022-09-18T09:40:54.552Z,14.69
2022-09-18T09:56:10.726Z,14.94
2022-09-18T10:11:17.141Z,15.06
2022-09-18T10:26:28.031Z,15.13
2022-09-18T10:41:37.129Z,15.56
2022-09-18T10:56:43.270Z,15.81
2022-09-18T11:11:51.718Z,15.50
2022-09-18T11:26:58.942Z,15.56
2022-09-18T11:42:10.719Z,15.75
2022-09-18T11:57:21.004Z,15.81
2022-09-18T12:12:29.974Z,15.75
2022-09-18T12:27:39.893Z,16.00
2022-09-18T12:42:58.972Z,16.19
2022-09-18T12:58:18.061Z,16.19
2022-09-18T13:13:32.188Z,16.25
2022-09-18T13:28:41.973Z,16.25
2022-09-18T13:43:52.654Z,16.19
2022-09-18T13:59:00.001Z,16.63
2022-09-18T14:14:15.065Z,16.31
2022-09-18T14:29:21.377Z,16.31
2022-09-18T14:44:30.273Z,16.50
2022-09-18T14:59:36.362Z,16.00
2022-09-18T15:14:47.488Z,15.88
2022-09-18T15:29:57.443Z,15.81
2022-09-18T15:45:20.294Z,15.75
2022-09-18T16:00:27.681Z,15.50
2022-09-18T16:15:36.001Z,15.38
2022-09-18T16:30:41.703Z,15.38
2022-09-18T16:45:49.426Z,15.13
2022-09-18T17:00:55.430Z,15.00
2022-09-18T17:16:02.061Z,14.81
2022-09-18T17:31:11.799Z,14.69
2022-09-18T17:46:17.818Z,14.50
2022-09-18T18:01:23.544Z,14.44
2022-09-18T18:16:31.333Z,14.50
2022-09-18T18:31:38.070Z,14.44
2022-09-18T18:46:44.673Z,14.31
2022-09-18T19:01:50.697Z,14.13
2022-09-18T19:16:57.296Z,14.19
2022-09-18T19:32:03.511Z,14.06
2022-09-18T19:47:17.019Z,14.00
2022-09-18T20:02:24.251Z,13.94
2022-09-18T20:17:31.548Z,13.94
2022-09-18T20:32:37.982Z,13.94
2022-09-18T20:47:43.986Z,13.81
2022-09-18T21:02:54.354Z,13.81
2022-09-18T21:18:00.522Z,13.63
2022-09-18T21:33:11.256Z,13.63
2022-09-18T21:48:16.875Z,13.69
2022-09-18T22:03:22.537Z,13.69
2022-09-18T22:18:28.749Z,13.56
2022-09-18T22:33:34.881Z,13.56
2022-09-18T22:48:41.568Z,13.44
2022-09-18T23:03:48.503Z,13.44
2022-09-18T23:18:56.148Z,13.56
2022-09-18T23:34:03.618Z,13.63
2022-09-18T23:49:10.590Z,13.63
